Maersk Damietta — A8OU4 — position and weather

sailwx.info

Track history (hours):
 
Tides and Currents Weather Stations Pressure Air Temp Water Temp Dewpoint Dewpoint Depression Visibility Wind Speed Wind Dir Waves Ship Positions

Maersk Damietta

Last reported at 2015-May-03 06:11 UTC. Time now 2015-May-04 01:57 UTC.
Position N 42°11' W 135°04'.

Length 293 m; draft 10 m.

Type: Ship. MMSI: 636091506.

Date/timePositionNaut miles runAvg speedWind from/ knotsBaromVisibWave heightAir tempDewpointWater temp
2015-May-03 06:11N 42°11' W 135°04'628.5
2015-May-03 06:00N 42°06' W 135°00'3010.3 360 / 81026.0 5.4 2.011.0 6.815.0
2015-May-03 03:06N 41°47' W 134°29'33711.2
2015-May-01 21:08N 37°51' W 129°17'26 8.8
2015-May-01 18:10N 37°32' W 128°54'6 8.5
2015-May-01 17:30N 37°28' W 128°49'8 8.4
2015-May-01 16:33N 37°22' W 128°42'142 8.4
2015-Apr-30 23:33N 35°38' W 126°42'77 8.4
2015-Apr-30 14:20N 34°54' W 125°24'8 9.2
2015-Apr-30 13:27N 34°52' W 125°14'8 9.1
2015-Apr-30 12:34N 34°50' W 125°05'28 9.0
2015-Apr-30 09:30N 34°44' W 124°32'13 9.6
2015-Apr-30 08:07N 34°42' W 124°16'6 9.6
2015-Apr-30 07:32N 34°40' W 124°09'12 9.3
2015-Apr-30 06:16N 34°38' W 123°55'15 9.0
2015-Apr-30 04:33N 34°35' W 123°37'9 8.8
2015-Apr-30 03:32N 34°33' W 123°27'9 9.0
2015-Apr-30 02:33N 34°31' W 123°16'9 8.9
2015-Apr-30 01:33N 34°28' W 123°06'9 9.0
2015-Apr-30 00:33N 34°26' W 122°55'9 8.9
2015-Apr-29 23:33N 34°24' W 122°45'11 9.0
2015-Apr-29 22:19N 34°22' W 122°32'7 9.1
2015-Apr-29 21:33N 34°20' W 122°23'9 9.3
2015-Apr-29 20:33N 34°17' W 122°13'9 9.3
2015-Apr-29 19:33N 34°15' W 122°02'10 9.9
2015-Apr-29 18:33N 34°17' W 121°50'10 9.8
2015-Apr-29 17:30N 34°19' W 121°37'1510.8
2015-Apr-29 16:07N 34°22' W 121°20'910.8
2015-Apr-29 15:15N 34°24' W 121°09'810.9
2015-Apr-29 14:30N 34°25' W 120°59'2110.5
2015-Apr-29 12:32N 34°22' W 120°34'2311.6
2015-Apr-29 10:31N 34°16' W 120°07'1111.4
2015-Apr-29 09:33N 34°13' W 119°54'1010.5
2015-Apr-29 08:33N 34°10' W 119°42'1111.3
2015-Apr-29 07:34N 34°07' W 119°29'1111.4
2015-Apr-29 06:33N 34°04' W 119°15'1111.4
2015-Apr-29 05:33N 33°59' W 119°03'1111.1
2015-Apr-29 04:33N 33°53' W 118°52'1110.9
2015-Apr-29 03:34N 33°48' W 118°41'1111.2
2015-Apr-29 02:33N 33°42' W 118°29'1111.2
2015-Apr-29 01:33N 33°38' W 118°16'7 7.2
2015-Apr-29 00:33N 33°45' W 118°13'1 1.3
2015-Apr-28 23:31N 33°46' W 118°14'0 0.0
2015-Apr-28 22:33N 33°46' W 118°14'0 0.0
2015-Apr-28 21:32N 33°46' W 118°14'0 0.0
2015-Apr-28 20:32N 33°46' W 118°14'0 0.0
2015-Apr-28 19:34N 33°46' W 118°14'0 0.0
2015-Apr-28 18:31N 33°46' W 118°14'0 0.0
2015-Apr-28 17:33N 33°46' W 118°14'0 0.0
2015-Apr-28 16:31N 33°46' W 118°14'0 0.0
2015-Apr-28 15:31N 33°46' W 118°14'0 0.0
2015-Apr-28 14:31N 33°46' W 118°14'0 0.0
2015-Apr-28 13:33N 33°46' W 118°14'0 0.0
2015-Apr-28 12:33N 33°46' W 118°14'0 0.0
2015-Apr-28 11:33N 33°46' W 118°14'0 0.0
2015-Apr-28 10:33N 33°46' W 118°14'0 0.0
2015-Apr-28 09:33N 33°46' W 118°14'0 0.0
2015-Apr-28 08:33N 33°46' W 118°14'0 0.0
2015-Apr-28 07:33N 33°46' W 118°14'0 0.0
2015-Apr-28 06:33N 33°46' W 118°14'0 0.0
2015-Apr-28 05:33N 33°46' W 118°14'0 0.0
2015-Apr-28 04:33N 33°46' W 118°14'0 0.0
2015-Apr-28 03:33N 33°46' W 118°14'0 0.0
2015-Apr-28 02:31N 33°46' W 118°14'0 0.0
2015-Apr-28 01:33N 33°46' W 118°14'0 0.0
2015-Apr-28 00:33N 33°46' W 118°14'0 0.0
2015-Apr-27 23:30N 33°46' W 118°14'0 0.0
2015-Apr-27 22:32N 33°46' W 118°14'0 0.0
2015-Apr-27 21:33N 33°46' W 118°14'0 0.0
2015-Apr-27 20:33N 33°46' W 118°14'0 0.0
2015-Apr-27 19:32N 33°46' W 118°14'0 0.0
2015-Apr-27 18:33N 33°46' W 118°14'0 0.0
2015-Apr-27 17:31N 33°46' W 118°14'0 0.0
2015-Apr-27 16:33N 33°46' W 118°14'0 0.0
2015-Apr-27 15:31N 33°46' W 118°14'0 0.0
2015-Apr-27 14:33N 33°46' W 118°14'0 0.0
2015-Apr-27 13:33N 33°46' W 118°14'0 0.0
2015-Apr-27 12:33N 33°46' W 118°14'0 0.0
2015-Apr-27 11:33N 33°46' W 118°14'0 0.0
2015-Apr-27 10:33N 33°46' W 118°14'0 0.0
2015-Apr-27 09:32N 33°46' W 118°14'0 0.0
2015-Apr-27 08:31N 33°46' W 118°14'0 0.0
2015-Apr-27 07:32N 33°46' W 118°14'0 0.0
2015-Apr-27 06:31N 33°46' W 118°14'0 0.0
2015-Apr-27 05:33N 33°46' W 118°14'0 0.0
2015-Apr-27 04:33N 33°46' W 118°14'0 0.0
2015-Apr-27 03:32N 33°46' W 118°14'0 0.0
2015-Apr-27 02:31N 33°46' W 118°14'0 0.0
2015-Apr-27 01:33N 33°46' W 118°14'0 0.0
2015-Apr-27 00:31N 33°46' W 118°14'0 0.0
2015-Apr-26 23:33N 33°46' W 118°14'0 0.0
2015-Apr-26 22:32N 33°46' W 118°14'0 0.0
2015-Apr-26 21:33N 33°46' W 118°14'0 0.0
2015-Apr-26 20:33N 33°46' W 118°14'1 0.9
2015-Apr-26 19:33N 33°46' W 118°13'7 6.8
2015-Apr-26 18:33N 33°39' W 118°13'30412.4
2015-Apr-25 18:00N 33°48' W 124°18'   280 / 191021.0 5.4 2.518.014.617.0
Track history (hours):
 
Tides and Currents Weather Stations Pressure Air Temp Water Temp Dewpoint Dewpoint Depression Visibility Wind Speed Wind Dir Waves Ship Positions

Maersk Damietta

Last reported at 2015-May-03 06:11 UTC. Time now 2015-May-04 01:57 UTC.
Position N 42°11' W 135°04'.

Length 293 m; draft 10 m.

Type: Ship. MMSI: 636091506.

Date/timePositionNaut miles runAvg speedWind from/ knotsBaromVisibWave heightAir tempDewpointWater temp
2015-May-03 06:11N 42°11' W 135°04'628.5
2015-May-03 06:00N 42°06' W 135°00'3010.3 360 / 81026.0 5.4 2.011.0 6.815.0
2015-May-03 03:06N 41°47' W 134°29'33711.2
2015-May-01 21:08N 37°51' W 129°17'26 8.8
2015-May-01 18:10N 37°32' W 128°54'6 8.5
2015-May-01 17:30N 37°28' W 128°49'8 8.4
2015-May-01 16:33N 37°22' W 128°42'142 8.4
2015-Apr-30 23:33N 35°38' W 126°42'77 8.4
2015-Apr-30 14:20N 34°54' W 125°24'8 9.2
2015-Apr-30 13:27N 34°52' W 125°14'8 9.1
2015-Apr-30 12:34N 34°50' W 125°05'28 9.0
2015-Apr-30 09:30N 34°44' W 124°32'13 9.6
2015-Apr-30 08:07N 34°42' W 124°16'6 9.6
2015-Apr-30 07:32N 34°40' W 124°09'12 9.3
2015-Apr-30 06:16N 34°38' W 123°55'15 9.0
2015-Apr-30 04:33N 34°35' W 123°37'9 8.8
2015-Apr-30 03:32N 34°33' W 123°27'9 9.0
2015-Apr-30 02:33N 34°31' W 123°16'9 8.9
2015-Apr-30 01:33N 34°28' W 123°06'9 9.0
2015-Apr-30 00:33N 34°26' W 122°55'9 8.9
2015-Apr-29 23:33N 34°24' W 122°45'11 9.0
2015-Apr-29 22:19N 34°22' W 122°32'7 9.1
2015-Apr-29 21:33N 34°20' W 122°23'9 9.3
2015-Apr-29 20:33N 34°17' W 122°13'9 9.3
2015-Apr-29 19:33N 34°15' W 122°02'10 9.9
2015-Apr-29 18:33N 34°17' W 121°50'10 9.8
2015-Apr-29 17:30N 34°19' W 121°37'1510.8
2015-Apr-29 16:07N 34°22' W 121°20'910.8
2015-Apr-29 15:15N 34°24' W 121°09'810.9
2015-Apr-29 14:30N 34°25' W 120°59'2110.5
2015-Apr-29 12:32N 34°22' W 120°34'2311.6
2015-Apr-29 10:31N 34°16' W 120°07'1111.4
2015-Apr-29 09:33N 34°13' W 119°54'1010.5
2015-Apr-29 08:33N 34°10' W 119°42'1111.3
2015-Apr-29 07:34N 34°07' W 119°29'1111.4
2015-Apr-29 06:33N 34°04' W 119°15'1111.4
2015-Apr-29 05:33N 33°59' W 119°03'1111.1
2015-Apr-29 04:33N 33°53' W 118°52'1110.9
2015-Apr-29 03:34N 33°48' W 118°41'1111.2
2015-Apr-29 02:33N 33°42' W 118°29'1111.2
2015-Apr-29 01:33N 33°38' W 118°16'7 7.2
2015-Apr-29 00:33N 33°45' W 118°13'1 1.3
2015-Apr-28 23:31N 33°46' W 118°14'0 0.0
2015-Apr-28 22:33N 33°46' W 118°14'0 0.0
2015-Apr-28 21:32N 33°46' W 118°14'0 0.0
2015-Apr-28 20:32N 33°46' W 118°14'0 0.0
2015-Apr-28 19:34N 33°46' W 118°14'0 0.0
2015-Apr-28 18:31N 33°46' W 118°14'0 0.0
2015-Apr-28 17:33N 33°46' W 118°14'0 0.0
2015-Apr-28 16:31N 33°46' W 118°14'0 0.0
2015-Apr-28 15:31N 33°46' W 118°14'0 0.0
2015-Apr-28 14:31N 33°46' W 118°14'0 0.0
2015-Apr-28 13:33N 33°46' W 118°14'0 0.0
2015-Apr-28 12:33N 33°46' W 118°14'0 0.0
2015-Apr-28 11:33N 33°46' W 118°14'0 0.0
2015-Apr-28 10:33N 33°46' W 118°14'0 0.0
2015-Apr-28 09:33N 33°46' W 118°14'0 0.0
2015-Apr-28 08:33N 33°46' W 118°14'0 0.0
2015-Apr-28 07:33N 33°46' W 118°14'0 0.0
2015-Apr-28 06:33N 33°46' W 118°14'0 0.0
2015-Apr-28 05:33N 33°46' W 118°14'0 0.0
2015-Apr-28 04:33N 33°46' W 118°14'0 0.0
2015-Apr-28 03:33N 33°46' W 118°14'0 0.0
2015-Apr-28 02:31N 33°46' W 118°14'0 0.0
2015-Apr-28 01:33N 33°46' W 118°14'0 0.0
2015-Apr-28 00:33N 33°46' W 118°14'0 0.0
2015-Apr-27 23:30N 33°46' W 118°14'0 0.0
2015-Apr-27 22:32N 33°46' W 118°14'0 0.0
2015-Apr-27 21:33N 33°46' W 118°14'0 0.0
2015-Apr-27 20:33N 33°46' W 118°14'0 0.0
2015-Apr-27 19:32N 33°46' W 118°14'0 0.0
2015-Apr-27 18:33N 33°46' W 118°14'0 0.0
2015-Apr-27 17:31N 33°46' W 118°14'0 0.0
2015-Apr-27 16:33N 33°46' W 118°14'0 0.0
2015-Apr-27 15:31N 33°46' W 118°14'0 0.0
2015-Apr-27 14:33N 33°46' W 118°14'0 0.0
2015-Apr-27 13:33N 33°46' W 118°14'0 0.0
2015-Apr-27 12:33N 33°46' W 118°14'0 0.0
2015-Apr-27 11:33N 33°46' W 118°14'0 0.0
2015-Apr-27 10:33N 33°46' W 118°14'0 0.0
2015-Apr-27 09:32N 33°46' W 118°14'0 0.0
2015-Apr-27 08:31N 33°46' W 118°14'0 0.0
2015-Apr-27 07:32N 33°46' W 118°14'0 0.0
2015-Apr-27 06:31N 33°46' W 118°14'0 0.0
2015-Apr-27 05:33N 33°46' W 118°14'0 0.0
2015-Apr-27 04:33N 33°46' W 118°14'0 0.0
2015-Apr-27 03:32N 33°46' W 118°14'0 0.0
2015-Apr-27 02:31N 33°46' W 118°14'0 0.0
2015-Apr-27 01:33N 33°46' W 118°14'0 0.0
2015-Apr-27 00:31N 33°46' W 118°14'0 0.0
2015-Apr-26 23:33N 33°46' W 118°14'0 0.0
2015-Apr-26 22:32N 33°46' W 118°14'0 0.0
2015-Apr-26 21:33N 33°46' W 118°14'0 0.0
2015-Apr-26 20:33N 33°46' W 118°14'1 0.9
2015-Apr-26 19:33N 33°46' W 118°13'7 6.8
2015-Apr-26 18:33N 33°39' W 118°13'30412.4
2015-Apr-25 18:00N 33°48' W 124°18'   280 / 191021.0 5.4 2.518.014.617.0

Dump ship's entire track history